aviador You're here:

GMMB Decoded Metar

BEN SLIMANE in MOROCCO
Report Time2017-08-17 13:00:00
UTC Time2017-08-17 13:35:24
Flight Rules unknown UNKNOWN
Wind330° at 09 kt
W.Decomp.*RWY 32: 8.8 kt HW 1.9 kt RCW
W.Rank330° ranks 4
Current wind is above 330° avg. (7.8)
VisibilityN/A
Phenomena:N/A
Clouds:N/A
Expected CloudBase > 7,200 ft AGL from Temp-Dew spread
CeilingNone
Temp33°C (ISA +19)
Dew Point15°C (34% RH)
Heat Index32.6°C
AAT31.4°C
QNH1017 hPa
Density Alt2,913 ft
Elevation626 ft
Report Wrong Elevation
Raw Report
METAR GMMB 171300Z AUTO 33009KT 280V020 //// ////// 33/15 Q1017
NOSIG=

Extra information for GMMB:More info

Metar Taf Metar & Taf Last 4 Metars F.Rules Stats Wind Profile Meteogram Temp Stats Airport Information Weather charts Add Link Nearby VenuesMetar ALERT Operation Metar Decoded Social comments